sensor_id;sensor_type;location;lat;lon;timestamp;temperature;humidity
18339;DHT22;9295;44.484;11.240;2023-08-12T00:00:10;22.40;99.90
18339;DHT22;9295;44.484;11.240;2023-08-12T00:02:45;22.40;99.90
18339;DHT22;9295;44.484;11.240;2023-08-12T00:05:14;22.40;99.90
18339;DHT22;9295;44.484;11.240;2023-08-12T00:07:42;22.40;99.90
18339;DHT22;9295;44.484;11.240;2023-08-12T00:10:12;22.30;99.90
18339;DHT22;9295;44.484;11.240;2023-08-12T00:12:41;22.30;99.90
18339;DHT22;9295;44.484;11.240;2023-08-12T00:15:10;22.20;99.90
18339;DHT22;9295;44.484;11.240;2023-08-12T00:17:39;22.20;99.90
18339;DHT22;9295;44.484;11.240;2023-08-12T00:20:11;22.20;99.90
18339;DHT22;9295;44.484;11.240;2023-08-12T00:22:40;22.20;99.90
18339;DHT22;9295;44.484;11.240;2023-08-12T00:25:09;22.20;99.90
18339;DHT22;9295;44.484;11.240;2023-08-12T00:27:37;22.20;99.90
18339;DHT22;9295;44.484;11.240;2023-08-12T00:30:07;22.20;99.90
18339;DHT22;9295;44.484;11.240;2023-08-12T00:32:36;22.10;99.90
18339;DHT22;9295;44.484;11.240;2023-08-12T00:35:05;22.00;99.90
18339;DHT22;9295;44.484;11.240;2023-08-12T00:37:35;21.90;99.90
18339;DHT22;9295;44.484;11.240;2023-08-12T00:40:05;21.80;99.90
18339;DHT22;9295;44.484;11.240;2023-08-12T00:42:34;21.80;99.90
18339;DHT22;9295;44.484;11.240;2023-08-12T00:45:03;21.70;99.90
18339;DHT22;9295;44.484;11.240;2023-08-12T00:47:32;21.70;99.90
18339;DHT22;9295;44.484;11.240;2023-08-12T00:50:01;21.60;99.90
18339;DHT22;9295;44.484;11.240;2023-08-12T00:52:30;21.50;99.90
18339;DHT22;9295;44.484;11.240;2023-08-12T00:55:00;21.40;99.90
18339;DHT22;9295;44.484;11.240;2023-08-12T00:57:29;21.40;99.90
18339;DHT22;9295;44.484;11.240;2023-08-12T00:59:57;21.30;99.90
18339;DHT22;9295;44.484;11.240;2023-08-12T01:02:28;21.30;99.90
18339;DHT22;9295;44.484;11.240;2023-08-12T01:04:58;21.30;99.90
18339;DHT22;9295;44.484;11.240;2023-08-12T01:07:26;21.30;99.90
18339;DHT22;9295;44.484;11.240;2023-08-12T01:09:55;21.30;99.90
18339;DHT22;9295;44.484;11.240;2023-08-12T01:12:29;21.40;99.90
18339;DHT22;9295;44.484;11.240;2023-08-12T01:15:04;21.40;99.90
18339;DHT22;9295;44.484;11.240;2023-08-12T01:17:38;21.30;99.90
18339;DHT22;9295;44.484;11.240;2023-08-12T01:20:08;21.20;99.90
18339;DHT22;9295;44.484;11.240;2023-08-12T01:22:41;21.20;99.90
18339;DHT22;9295;44.484;11.240;2023-08-12T01:25:13;21.20;99.90
18339;DHT22;9295;44.484;11.240;2023-08-12T01:27:42;21.10;99.90
18339;DHT22;9295;44.484;11.240;2023-08-12T01:30:11;21.10;99.90
18339;DHT22;9295;44.484;11.240;2023-08-12T01:32:45;21.10;99.90
18339;DHT22;9295;44.484;11.240;2023-08-12T01:35:19;21.10;99.90
18339;DHT22;9295;44.484;11.240;2023-08-12T01:37:50;21.10;99.90
18339;DHT22;9295;44.484;11.240;2023-08-12T01:40:23;21.10;99.90
18339;DHT22;9295;44.484;11.240;2023-08-12T01:42:52;21.10;99.90
18339;DHT22;9295;44.484;11.240;2023-08-12T01:45:22;21.10;99.90
18339;DHT22;9295;44.484;11.240;2023-08-12T01:47:51;21.10;99.90
18339;DHT22;9295;44.484;11.240;2023-08-12T01:50:21;21.00;99.90
18339;DHT22;9295;44.484;11.240;2023-08-12T01:52:50;20.90;99.90
18339;DHT22;9295;44.484;11.240;2023-08-12T01:55:19;20.90;99.90
18339;DHT22;9295;44.484;11.240;2023-08-12T01:57:48;20.90;99.90
18339;DHT22;9295;44.484;11.240;2023-08-12T02:00:17;20.90;99.90
18339;DHT22;9295;44.484;11.240;2023-08-12T02:02:46;20.90;99.90
18339;DHT22;9295;44.484;11.240;2023-08-12T02:05:15;20.80;99.90
18339;DHT22;9295;44.484;11.240;2023-08-12T02:07:43;20.70;99.90
18339;DHT22;9295;44.484;11.240;2023-08-12T02:10:12;20.60;99.90
18339;DHT22;9295;44.484;11.240;2023-08-12T02:12:42;20.60;99.90
18339;DHT22;9295;44.484;11.240;2023-08-12T02:15:12;20.60;99.90
18339;DHT22;9295;44.484;11.240;2023-08-12T02:17:41;20.50;99.90
18339;DHT22;9295;44.484;11.240;2023-08-12T02:20:11;20.50;99.90
18339;DHT22;9295;44.484;11.240;2023-08-12T02:22:39;20.50;99.90
18339;DHT22;9295;44.484;11.240;2023-08-12T02:25:08;20.40;99.90
18339;DHT22;9295;44.484;11.240;2023-08-12T02:27:39;20.40;99.90
18339;DHT22;9295;44.484;11.240;2023-08-12T02:30:08;20.40;99.90
18339;DHT22;9295;44.484;11.240;2023-08-12T02:32:39;20.40;99.90
18339;DHT22;9295;44.484;11.240;2023-08-12T02:35:10;20.40;99.90
18339;DHT22;9295;44.484;11.240;2023-08-12T02:37:39;20.40;99.90
18339;DHT22;9295;44.484;11.240;2023-08-12T02:40:09;20.40;99.90
18339;DHT22;9295;44.484;11.240;2023-08-12T02:42:38;20.40;99.90
18339;DHT22;9295;44.484;11.240;2023-08-12T02:45:07;20.40;99.90
18339;DHT22;9295;44.484;11.240;2023-08-12T02:47:35;20.40;99.90
18339;DHT22;9295;44.484;11.240;2023-08-12T02:50:07;20.50;99.90
18339;DHT22;9295;44.484;11.240;2023-08-12T02:52:36;20.50;99.90
18339;DHT22;9295;44.484;11.240;2023-08-12T02:55:05;20.50;99.90
18339;DHT22;9295;44.484;11.240;2023-08-12T02:57:34;20.50;99.90
18339;DHT22;9295;44.484;11.240;2023-08-12T03:00:02;20.40;99.90
18339;DHT22;9295;44.484;11.240;2023-08-12T03:02:32;20.40;99.90
18339;DHT22;9295;44.484;11.240;2023-08-12T03:05:01;20.40;99.90
18339;DHT22;9295;44.484;11.240;2023-08-12T03:07:31;20.40;99.90
18339;DHT22;9295;44.484;11.240;2023-08-12T03:10:00;20.30;99.90
18339;DHT22;9295;44.484;11.240;2023-08-12T03:12:29;20.30;99.90
18339;DHT22;9295;44.484;11.240;2023-08-12T03:14:57;20.20;99.90
18339;DHT22;9295;44.484;11.240;2023-08-12T03:17:27;20.20;99.90
18339;DHT22;9295;44.484;11.240;2023-08-12T03:19:57;20.20;99.90
18339;DHT22;9295;44.484;11.240;2023-08-12T03:22:28;20.20;99.90
18339;DHT22;9295;44.484;11.240;2023-08-12T03:24:59;20.10;99.90
18339;DHT22;9295;44.484;11.240;2023-08-12T03:27:28;20.10;99.90
18339;DHT22;9295;44.484;11.240;2023-08-12T03:29:56;20.10;99.90
18339;DHT22;9295;44.484;11.240;2023-08-12T03:32:26;20.10;99.90
18339;DHT22;9295;44.484;11.240;2023-08-12T03:34:55;20.10;99.90
18339;DHT22;9295;44.484;11.240;2023-08-12T03:37:24;20.10;99.90
18339;DHT22;9295;44.484;11.240;2023-08-12T03:39:53;20.10;99.90
18339;DHT22;9295;44.484;11.240;2023-08-12T03:42:23;20.10;99.90
18339;DHT22;9295;44.484;11.240;2023-08-12T03:44:52;20.10;99.90
18339;DHT22;9295;44.484;11.240;2023-08-12T03:47:21;20.10;99.90
18339;DHT22;9295;44.484;11.240;2023-08-12T03:49:51;20.00;99.90
18339;DHT22;9295;44.484;11.240;2023-08-12T03:52:20;20.00;99.90
18339;DHT22;9295;44.484;11.240;2023-08-12T03:54:48;20.00;99.90
18339;DHT22;9295;44.484;11.240;2023-08-12T03:57:17;19.90;99.90
18339;DHT22;9295;44.484;11.240;2023-08-12T03:59:48;19.80;99.90
18339;DHT22;9295;44.484;11.240;2023-08-12T04:02:17;19.90;99.90
18339;DHT22;9295;44.484;11.240;2023-08-12T04:04:45;19.90;99.90
18339;DHT22;9295;44.484;11.240;2023-08-12T04:07:14;19.90;99.90
18339;DHT22;9295;44.484;11.240;2023-08-12T04:09:42;19.90;99.90
18339;DHT22;9295;44.484;11.240;2023-08-12T04:12:11;19.80;99.90
18339;DHT22;9295;44.484;11.240;2023-08-12T04:14:39;19.80;99.90
18339;DHT22;9295;44.484;11.240;2023-08-12T04:17:09;19.80;99.90
18339;DHT22;9295;44.484;11.240;2023-08-12T04:19:39;19.80;99.90
18339;DHT22;9295;44.484;11.240;2023-08-12T04:22:07;19.80;99.90
18339;DHT22;9295;44.484;11.240;2023-08-12T04:24:36;19.80;99.90
18339;DHT22;9295;44.484;11.240;2023-08-12T04:27:05;19.80;99.90
18339;DHT22;9295;44.484;11.240;2023-08-12T04:29:35;19.80;99.90
18339;DHT22;9295;44.484;11.240;2023-08-12T04:32:05;19.80;99.90
18339;DHT22;9295;44.484;11.240;2023-08-12T04:34:35;19.80;99.90
18339;DHT22;9295;44.484;11.240;2023-08-12T04:37:03;19.80;99.90
18339;DHT22;9295;44.484;11.240;2023-08-12T04:39:32;19.90;99.90
18339;DHT22;9295;44.484;11.240;2023-08-12T04:42:02;20.00;99.90
18339;DHT22;9295;44.484;11.240;2023-08-12T04:44:31;20.00;99.90
18339;DHT22;9295;44.484;11.240;2023-08-12T04:47:00;20.10;99.90
18339;DHT22;9295;44.484;11.240;2023-08-12T04:49:32;20.20;99.90
18339;DHT22;9295;44.484;11.240;2023-08-12T04:52:02;20.20;99.90
18339;DHT22;9295;44.484;11.240;2023-08-12T04:54:31;20.30;99.90
18339;DHT22;9295;44.484;11.240;2023-08-12T04:56:59;20.30;99.90
18339;DHT22;9295;44.484;11.240;2023-08-12T04:59:28;20.40;99.90
18339;DHT22;9295;44.484;11.240;2023-08-12T05:01:56;20.40;99.90
18339;DHT22;9295;44.484;11.240;2023-08-12T05:04:47;20.50;99.90
18339;DHT22;9295;44.484;11.240;2023-08-12T05:07:18;20.50;99.90
18339;DHT22;9295;44.484;11.240;2023-08-12T05:09:46;20.50;99.90
18339;DHT22;9295;44.484;11.240;2023-08-12T05:12:16;20.50;99.90
18339;DHT22;9295;44.484;11.240;2023-08-12T05:14:44;20.60;99.90
18339;DHT22;9295;44.484;11.240;2023-08-12T05:17:13;20.60;99.90
18339;DHT22;9295;44.484;11.240;2023-08-12T05:19:43;20.60;99.90
18339;DHT22;9295;44.484;11.240;2023-08-12T05:22:11;20.70;99.90
18339;DHT22;9295;44.484;11.240;2023-08-12T05:24:41;20.70;99.90
18339;DHT22;9295;44.484;11.240;2023-08-12T05:27:13;20.80;99.90
18339;DHT22;9295;44.484;11.240;2023-08-12T05:29:41;21.30;99.90
18339;DHT22;9295;44.484;11.240;2023-08-12T05:32:10;22.90;99.90
18339;DHT22;9295;44.484;11.240;2023-08-12T05:34:39;24.40;99.90
18339;DHT22;9295;44.484;11.240;2023-08-12T05:37:07;25.70;99.90
18339;DHT22;9295;44.484;11.240;2023-08-12T05:39:36;26.60;99.90
18339;DHT22;9295;44.484;11.240;2023-08-12T05:42:06;27.50;99.90
18339;DHT22;9295;44.484;11.240;2023-08-12T05:44:35;28.10;99.90
18339;DHT22;9295;44.484;11.240;2023-08-12T05:47:03;28.60;99.90
18339;DHT22;9295;44.484;11.240;2023-08-12T05:49:32;28.70;99.90
18339;DHT22;9295;44.484;11.240;2023-08-12T05:52:00;28.70;99.90
18339;DHT22;9295;44.484;11.240;2023-08-12T05:54:29;28.60;99.90
18339;DHT22;9295;44.484;11.240;2023-08-12T05:56:58;28.80;99.90
18339;DHT22;9295;44.484;11.240;2023-08-12T05:59:28;29.10;99.90
18339;DHT22;9295;44.484;11.240;2023-08-12T06:01:57;29.20;99.90
18339;DHT22;9295;44.484;11.240;2023-08-12T06:04:25;29.30;99.90
18339;DHT22;9295;44.484;11.240;2023-08-12T06:06:54;29.50;99.90
18339;DHT22;9295;44.484;11.240;2023-08-12T06:09:22;29.70;99.90
18339;DHT22;9295;44.484;11.240;2023-08-12T06:11:51;29.80;99.90
18339;DHT22;9295;44.484;11.240;2023-08-12T06:14:19;29.90;99.90
18339;DHT22;9295;44.484;11.240;2023-08-12T06:16:49;29.80;99.90
18339;DHT22;9295;44.484;11.240;2023-08-12T06:19:18;29.80;99.90
18339;DHT22;9295;44.484;11.240;2023-08-12T06:21:46;30.10;99.90
18339;DHT22;9295;44.484;11.240;2023-08-12T06:24:15;30.30;99.90
18339;DHT22;9295;44.484;11.240;2023-08-12T06:26:43;30.20;99.90
18339;DHT22;9295;44.484;11.240;2023-08-12T06:29:12;30.20;99.90
18339;DHT22;9295;44.484;11.240;2023-08-12T06:31:40;30.40;99.90
18339;DHT22;9295;44.484;11.240;2023-08-12T06:34:10;30.60;99.90
18339;DHT22;9295;44.484;11.240;2023-08-12T06:36:39;30.50;99.90
18339;DHT22;9295;44.484;11.240;2023-08-12T06:39:08;30.40;99.90
18339;DHT22;9295;44.484;11.240;2023-08-12T06:41:36;30.60;99.90
18339;DHT22;9295;44.484;11.240;2023-08-12T06:44:05;30.80;99.90
18339;DHT22;9295;44.484;11.240;2023-08-12T06:46:34;31.00;99.90
18339;DHT22;9295;44.484;11.240;2023-08-12T06:49:02;31.20;99.90
18339;DHT22;9295;44.484;11.240;2023-08-12T06:51:32;31.20;99.90
18339;DHT22;9295;44.484;11.240;2023-08-12T06:54:01;31.40;99.90
18339;DHT22;9295;44.484;11.240;2023-08-12T06:56:29;31.40;99.90
18339;DHT22;9295;44.484;11.240;2023-08-12T06:58:58;31.60;99.90
18339;DHT22;9295;44.484;11.240;2023-08-12T07:01:26;31.70;99.90
18339;DHT22;9295;44.484;11.240;2023-08-12T07:03:55;31.90;99.90
18339;DHT22;9295;44.484;11.240;2023-08-12T07:06:24;31.80;99.90
18339;DHT22;9295;44.484;11.240;2023-08-12T07:08:54;31.70;99.90
18339;DHT22;9295;44.484;11.240;2023-08-12T07:11:23;31.50;99.90
18339;DHT22;9295;44.484;11.240;2023-08-12T07:13:51;31.70;99.90
18339;DHT22;9295;44.484;11.240;2023-08-12T07:16:20;31.80;99.90
18339;DHT22;9295;44.484;11.240;2023-08-12T07:18:49;32.20;99.90
18339;DHT22;9295;44.484;11.240;2023-08-12T07:21:17;32.40;99.90
18339;DHT22;9295;44.484;11.240;2023-08-12T07:23:46;32.40;99.70
18339;DHT22;9295;44.484;11.240;2023-08-12T07:26:31;32.40;99.60
18339;DHT22;9295;44.484;11.240;2023-08-12T07:28:59;32.50;99.50
18339;DHT22;9295;44.484;11.240;2023-08-12T07:31:28;32.70;99.70
18339;DHT22;9295;44.484;11.240;2023-08-12T07:33:57;32.80;99.40
18339;DHT22;9295;44.484;11.240;2023-08-12T07:36:25;32.80;99.10
18339;DHT22;9295;44.484;11.240;2023-08-12T07:38:54;33.00;99.10
18339;DHT22;9295;44.484;11.240;2023-08-12T07:41:23;33.20;98.50
18339;DHT22;9295;44.484;11.240;2023-08-12T07:43:56;33.10;98.10
18339;DHT22;9295;44.484;11.240;2023-08-12T07:46:24;33.10;98.00
18339;DHT22;9295;44.484;11.240;2023-08-12T07:48:53;33.20;97.80
18339;DHT22;9295;44.484;11.240;2023-08-12T07:51:22;33.20;97.70
18339;DHT22;9295;44.484;11.240;2023-08-12T07:53:50;33.10;97.80
18339;DHT22;9295;44.484;11.240;2023-08-12T07:56:19;33.30;97.20
18339;DHT22;9295;44.484;11.240;2023-08-12T07:58:47;33.40;96.60
18339;DHT22;9295;44.484;11.240;2023-08-12T08:01:17;33.50;96.40
18339;DHT22;9295;44.484;11.240;2023-08-12T08:03:46;32.70;96.70
18339;DHT22;9295;44.484;11.240;2023-08-12T08:06:14;33.10;97.10
18339;DHT22;9295;44.484;11.240;2023-08-12T08:08:43;33.20;96.40
18339;DHT22;9295;44.484;11.240;2023-08-12T08:11:12;33.30;96.00
18339;DHT22;9295;44.484;11.240;2023-08-12T08:13:41;33.30;96.20
18339;DHT22;9295;44.484;11.240;2023-08-12T08:16:09;33.50;96.20
18339;DHT22;9295;44.484;11.240;2023-08-12T08:18:39;33.60;96.10
18339;DHT22;9295;44.484;11.240;2023-08-12T08:21:08;33.50;96.10
18339;DHT22;9295;44.484;11.240;2023-08-12T08:23:37;33.50;96.10
18339;DHT22;9295;44.484;11.240;2023-08-12T08:26:05;33.60;96.00
18339;DHT22;9295;44.484;11.240;2023-08-12T08:28:34;33.60;95.90
18339;DHT22;9295;44.484;11.240;2023-08-12T08:31:02;33.60;95.80
18339;DHT22;9295;44.484;11.240;2023-08-12T08:33:31;33.80;96.10
18339;DHT22;9295;44.484;11.240;2023-08-12T08:36:01;33.60;96.80
18339;DHT22;9295;44.484;11.240;2023-08-12T08:38:30;33.60;95.80
18339;DHT22;9295;44.484;11.240;2023-08-12T08:40:58;33.40;95.60
18339;DHT22;9295;44.484;11.240;2023-08-12T08:43:27;33.10;95.80
18339;DHT22;9295;44.484;11.240;2023-08-12T08:45:57;33.00;96.10
18339;DHT22;9295;44.484;11.240;2023-08-12T08:48:26;33.10;96.40
18339;DHT22;9295;44.484;11.240;2023-08-12T08:50:55;33.00;95.60
18339;DHT22;9295;44.484;11.240;2023-08-12T08:53:25;32.90;96.10
18339;DHT22;9295;44.484;11.240;2023-08-12T08:55:54;32.90;96.10
18339;DHT22;9295;44.484;11.240;2023-08-12T08:58:27;33.00;96.20
18339;DHT22;9295;44.484;11.240;2023-08-12T09:00:55;32.40;96.00
18339;DHT22;9295;44.484;11.240;2023-08-12T09:03:25;31.70;96.80
18339;DHT22;9295;44.484;11.240;2023-08-12T09:05:55;31.20;97.60
18339;DHT22;9295;44.484;11.240;2023-08-12T09:08:26;31.30;98.10
18339;DHT22;9295;44.484;11.240;2023-08-12T09:10:57;31.80;97.80
18339;DHT22;9295;44.484;11.240;2023-08-12T09:13:26;32.10;97.10
18339;DHT22;9295;44.484;11.240;2023-08-12T09:15:55;32.20;97.10
18339;DHT22;9295;44.484;11.240;2023-08-12T09:18:26;32.40;97.10
18339;DHT22;9295;44.484;11.240;2023-08-12T09:20:55;32.50;96.90
18339;DHT22;9295;44.484;11.240;2023-08-12T09:23:26;32.20;96.40
18339;DHT22;9295;44.484;11.240;2023-08-12T09:25:54;32.30;96.70
18339;DHT22;9295;44.484;11.240;2023-08-12T09:28:25;32.30;96.30
18339;DHT22;9295;44.484;11.240;2023-08-12T09:30:53;31.90;96.50
18339;DHT22;9295;44.484;11.240;2023-08-12T09:33:25;31.70;96.90
18339;DHT22;9295;44.484;11.240;2023-08-12T09:35:54;31.70;97.30
18339;DHT22;9295;44.484;11.240;2023-08-12T09:38:26;31.90;96.80
18339;DHT22;9295;44.484;11.240;2023-08-12T09:40:54;32.00;96.70
18339;DHT22;9295;44.484;11.240;2023-08-12T09:43:24;31.40;97.10
18339;DHT22;9295;44.484;11.240;2023-08-12T09:45:56;31.10;97.60
18339;DHT22;9295;44.484;11.240;2023-08-12T09:48:25;30.70;98.00
18339;DHT22;9295;44.484;11.240;2023-08-12T09:50:53;30.80;98.40
18339;DHT22;9295;44.484;11.240;2023-08-12T09:53:22;31.00;98.30
18339;DHT22;9295;44.484;11.240;2023-08-12T09:55:52;31.00;97.90
18339;DHT22;9295;44.484;11.240;2023-08-12T09:58:23;30.80;98.00
18339;DHT22;9295;44.484;11.240;2023-08-12T10:00:53;30.80;98.30
18339;DHT22;9295;44.484;11.240;2023-08-12T10:03:23;31.00;98.50
18339;DHT22;9295;44.484;11.240;2023-08-12T10:05:52;31.20;98.10
18339;DHT22;9295;44.484;11.240;2023-08-12T10:08:21;31.20;98.10
18339;DHT22;9295;44.484;11.240;2023-08-12T10:10:52;31.30;98.20
18339;DHT22;9295;44.484;11.240;2023-08-12T10:13:37;31.30;98.00
18339;DHT22;9295;44.484;11.240;2023-08-12T10:16:07;31.50;97.70
18339;DHT22;9295;44.484;11.240;2023-08-12T10:18:38;31.50;98.10
18339;DHT22;9295;44.484;11.240;2023-08-12T10:21:09;31.60;97.90
18339;DHT22;9295;44.484;11.240;2023-08-12T10:23:39;31.70;98.10
18339;DHT22;9295;44.484;11.240;2023-08-12T10:26:14;31.60;97.40
18339;DHT22;9295;44.484;11.240;2023-08-12T10:28:43;31.30;97.70
18339;DHT22;9295;44.484;11.240;2023-08-12T10:31:12;31.10;98.00
18339;DHT22;9295;44.484;11.240;2023-08-12T10:33:41;31.00;97.90
18339;DHT22;9295;44.484;11.240;2023-08-12T10:36:10;31.00;98.00
18339;DHT22;9295;44.484;11.240;2023-08-12T10:38:38;31.00;98.20
18339;DHT22;9295;44.484;11.240;2023-08-12T10:41:19;31.10;98.10
18339;DHT22;9295;44.484;11.240;2023-08-12T10:43:55;31.20;98.10
18339;DHT22;9295;44.484;11.240;2023-08-12T10:46:28;31.20;98.30
18339;DHT22;9295;44.484;11.240;2023-08-12T10:49:05;31.10;98.50
18339;DHT22;9295;44.484;11.240;2023-08-12T10:51:44;31.10;98.60
18339;DHT22;9295;44.484;11.240;2023-08-12T10:54:19;31.10;98.40
18339;DHT22;9295;44.484;11.240;2023-08-12T10:57:06;31.20;98.50
18339;DHT22;9295;44.484;11.240;2023-08-12T10:59:52;31.30;98.20
18339;DHT22;9295;44.484;11.240;2023-08-12T11:02:28;30.80;98.20
18339;DHT22;9295;44.484;11.240;2023-08-12T11:05:01;30.60;98.60
18339;DHT22;9295;44.484;11.240;2023-08-12T11:07:37;30.40;98.70
18339;DHT22;9295;44.484;11.240;2023-08-12T11:10:12;30.50;99.00
18339;DHT22;9295;44.484;11.240;2023-08-12T11:12:47;30.60;98.80
18339;DHT22;9295;44.484;11.240;2023-08-12T11:15:17;30.50;98.60
18339;DHT22;9295;44.484;11.240;2023-08-12T11:17:47;30.30;98.50
18339;DHT22;9295;44.484;11.240;2023-08-12T11:20:15;30.30;98.70
18339;DHT22;9295;44.484;11.240;2023-08-12T11:22:44;30.20;98.60
18339;DHT22;9295;44.484;11.240;2023-08-12T11:25:14;30.00;98.70
18339;DHT22;9295;44.484;11.240;2023-08-12T11:27:48;30.20;99.10
18339;DHT22;9295;44.484;11.240;2023-08-12T11:30:18;30.40;98.70
18339;DHT22;9295;44.484;11.240;2023-08-12T11:32:49;30.50;98.60
18339;DHT22;9295;44.484;11.240;2023-08-12T11:35:19;30.60;98.70
18339;DHT22;9295;44.484;11.240;2023-08-12T11:37:49;30.70;98.40
18339;DHT22;9295;44.484;11.240;2023-08-12T11:40:18;30.70;98.30
18339;DHT22;9295;44.484;11.240;2023-08-12T11:42:49;30.80;98.60
18339;DHT22;9295;44.484;11.240;2023-08-12T11:45:19;30.90;98.30
18339;DHT22;9295;44.484;11.240;2023-08-12T11:47:48;31.00;97.30
18339;DHT22;9295;44.484;11.240;2023-08-12T11:50:23;30.90;97.00
18339;DHT22;9295;44.484;11.240;2023-08-12T11:52:52;30.90;97.10
18339;DHT22;9295;44.484;11.240;2023-08-12T11:55:21;30.80;97.40
18339;DHT22;9295;44.484;11.240;2023-08-12T11:57:52;30.80;97.10
18339;DHT22;9295;44.484;11.240;2023-08-12T12:00:21;30.80;97.40
18339;DHT22;9295;44.484;11.240;2023-08-12T12:02:52;30.90;97.50
18339;DHT22;9295;44.484;11.240;2023-08-12T12:05:23;31.10;97.50
18339;DHT22;9295;44.484;11.240;2023-08-12T12:07:52;31.00;97.40
18339;DHT22;9295;44.484;11.240;2023-08-12T12:10:25;31.10;97.10
18339;DHT22;9295;44.484;11.240;2023-08-12T12:13:00;30.90;97.20
18339;DHT22;9295;44.484;11.240;2023-08-12T12:15:30;30.80;97.40
18339;DHT22;9295;44.484;11.240;2023-08-12T12:17:58;31.00;97.90
18339;DHT22;9295;44.484;11.240;2023-08-12T12:20:27;31.30;97.90
18339;DHT22;9295;44.484;11.240;2023-08-12T12:22:56;31.40;97.20
18339;DHT22;9295;44.484;11.240;2023-08-12T12:25:25;31.50;97.30
18339;DHT22;9295;44.484;11.240;2023-08-12T12:27:54;31.50;97.30
18339;DHT22;9295;44.484;11.240;2023-08-12T12:30:24;31.50;96.60
18339;DHT22;9295;44.484;11.240;2023-08-12T12:32:53;31.50;97.00
18339;DHT22;9295;44.484;11.240;2023-08-12T12:35:21;31.50;97.10
18339;DHT22;9295;44.484;11.240;2023-08-12T12:37:51;31.50;97.20
18339;DHT22;9295;44.484;11.240;2023-08-12T12:40:19;31.50;97.10
18339;DHT22;9295;44.484;11.240;2023-08-12T12:42:48;31.50;96.90
18339;DHT22;9295;44.484;11.240;2023-08-12T12:45:16;31.50;97.00
18339;DHT22;9295;44.484;11.240;2023-08-12T12:47:46;31.60;97.00
18339;DHT22;9295;44.484;11.240;2023-08-12T12:50:15;31.50;96.30
18339;DHT22;9295;44.484;11.240;2023-08-12T12:52:44;31.50;96.60
18339;DHT22;9295;44.484;11.240;2023-08-12T12:55:12;31.50;96.50
18339;DHT22;9295;44.484;11.240;2023-08-12T12:57:41;31.60;96.80
18339;DHT22;9295;44.484;11.240;2023-08-12T13:00:11;31.80;96.60
18339;DHT22;9295;44.484;11.240;2023-08-12T13:02:42;32.00;96.50
18339;DHT22;9295;44.484;11.240;2023-08-12T13:05:12;32.10;96.40
18339;DHT22;9295;44.484;11.240;2023-08-12T13:07:40;32.00;95.60
18339;DHT22;9295;44.484;11.240;2023-08-12T13:10:09;31.80;95.40
18339;DHT22;9295;44.484;11.240;2023-08-12T13:12:37;31.80;95.80
18339;DHT22;9295;44.484;11.240;2023-08-12T13:15:07;31.80;95.80
18339;DHT22;9295;44.484;11.240;2023-08-12T13:17:35;31.90;95.70
18339;DHT22;9295;44.484;11.240;2023-08-12T13:20:05;32.10;95.40
18339;DHT22;9295;44.484;11.240;2023-08-12T13:22:36;32.20;94.80
18339;DHT22;9295;44.484;11.240;2023-08-12T13:25:05;32.10;94.40
18339;DHT22;9295;44.484;11.240;2023-08-12T13:27:34;32.00;94.60
18339;DHT22;9295;44.484;11.240;2023-08-12T13:30:03;32.10;94.50
18339;DHT22;9295;44.484;11.240;2023-08-12T13:32:32;32.20;94.40
18339;DHT22;9295;44.484;11.240;2023-08-12T13:35:00;32.40;94.10
18339;DHT22;9295;44.484;11.240;2023-08-12T13:37:29;32.40;94.20
18339;DHT22;9295;44.484;11.240;2023-08-12T13:39:59;32.40;93.70
18339;DHT22;9295;44.484;11.240;2023-08-12T13:42:28;32.40;93.70
18339;DHT22;9295;44.484;11.240;2023-08-12T13:44:56;32.40;93.70
18339;DHT22;9295;44.484;11.240;2023-08-12T13:47:27;32.50;93.90
18339;DHT22;9295;44.484;11.240;2023-08-12T13:49:55;32.60;94.10
18339;DHT22;9295;44.484;11.240;2023-08-12T13:52:24;32.70;93.80
18339;DHT22;9295;44.484;11.240;2023-08-12T13:54:52;32.70;93.80
18339;DHT22;9295;44.484;11.240;2023-08-12T13:57:22;32.70;93.90
18339;DHT22;9295;44.484;11.240;2023-08-12T13:59:51;32.80;94.10
18339;DHT22;9295;44.484;11.240;2023-08-12T14:02:19;32.90;93.90
18339;DHT22;9295;44.484;11.240;2023-08-12T14:04:48;32.90;93.50
18339;DHT22;9295;44.484;11.240;2023-08-12T14:07:17;32.90;93.50
18339;DHT22;9295;44.484;11.240;2023-08-12T14:09:47;32.80;93.90
18339;DHT22;9295;44.484;11.240;2023-08-12T14:12:16;32.90;94.10
18339;DHT22;9295;44.484;11.240;2023-08-12T14:14:46;32.90;93.70
18339;DHT22;9295;44.484;11.240;2023-08-12T14:17:15;32.90;93.20
18339;DHT22;9295;44.484;11.240;2023-08-12T14:19:48;32.80;93.10
18339;DHT22;9295;44.484;11.240;2023-08-12T14:22:17;32.80;92.80
18339;DHT22;9295;44.484;11.240;2023-08-12T14:24:46;32.90;92.90
18339;DHT22;9295;44.484;11.240;2023-08-12T14:27:15;33.00;92.80
18339;DHT22;9295;44.484;11.240;2023-08-12T14:29:46;33.00;92.60
18339;DHT22;9295;44.484;11.240;2023-08-12T14:32:15;33.00;92.90
18339;DHT22;9295;44.484;11.240;2023-08-12T14:34:46;33.00;92.70
18339;DHT22;9295;44.484;11.240;2023-08-12T14:37:14;32.90;92.40
18339;DHT22;9295;44.484;11.240;2023-08-12T14:39:43;32.90;92.20
18339;DHT22;9295;44.484;11.240;2023-08-12T14:42:11;32.60;92.60
18339;DHT22;9295;44.484;11.240;2023-08-12T14:44:40;32.40;92.60
18339;DHT22;9295;44.484;11.240;2023-08-12T14:47:10;32.40;93.10
18339;DHT22;9295;44.484;11.240;2023-08-12T14:49:39;32.50;93.10
18339;DHT22;9295;44.484;11.240;2023-08-12T14:52:15;32.70;93.00
18339;DHT22;9295;44.484;11.240;2023-08-12T14:54:44;32.80;92.60
18339;DHT22;9295;44.484;11.240;2023-08-12T14:57:13;32.90;92.20
18339;DHT22;9295;44.484;11.240;2023-08-12T14:59:42;32.80;92.40
18339;DHT22;9295;44.484;11.240;2023-08-12T15:02:12;32.70;92.10
18339;DHT22;9295;44.484;11.240;2023-08-12T15:04:40;32.70;92.10
18339;DHT22;9295;44.484;11.240;2023-08-12T15:07:09;32.70;92.20
18339;DHT22;9295;44.484;11.240;2023-08-12T15:09:38;32.70;92.20
18339;DHT22;9295;44.484;11.240;2023-08-12T15:12:06;32.70;92.40
18339;DHT22;9295;44.484;11.240;2023-08-12T15:14:35;32.90;92.30
18339;DHT22;9295;44.484;11.240;2023-08-12T15:17:04;32.90;91.60
18339;DHT22;9295;44.484;11.240;2023-08-12T15:19:33;32.80;92.00
18339;DHT22;9295;44.484;11.240;2023-08-12T15:22:02;32.70;91.70
18339;DHT22;9295;44.484;11.240;2023-08-12T15:24:30;32.70;91.60
18339;DHT22;9295;44.484;11.240;2023-08-12T15:26:59;32.70;91.90
18339;DHT22;9295;44.484;11.240;2023-08-12T15:29:44;32.60;91.60
18339;DHT22;9295;44.484;11.240;2023-08-12T15:32:13;32.70;91.60
18339;DHT22;9295;44.484;11.240;2023-08-12T15:34:43;32.70;91.40
18339;DHT22;9295;44.484;11.240;2023-08-12T15:37:12;32.80;91.50
18339;DHT22;9295;44.484;11.240;2023-08-12T15:39:41;32.80;91.50
18339;DHT22;9295;44.484;11.240;2023-08-12T15:42:09;32.80;90.80
18339;DHT22;9295;44.484;11.240;2023-08-12T15:44:38;32.70;90.70